sensor_id;sensor_type;location;lat;lon;timestamp;pressure;altitude;pressure_sealevel;temperature;humidity
28310;BME280;15571;50.974;13.936;2023-04-26T00:02:24;99975.53;;;8.39;100.00
28310;BME280;15571;50.974;13.936;2023-04-26T00:05:37;99971.16;;;8.35;100.00
28310;BME280;15571;50.974;13.936;2023-04-26T00:08:44;99976.41;;;8.36;100.00
28310;BME280;15571;50.974;13.936;2023-04-26T00:11:58;99972.91;;;8.34;100.00
28310;BME280;15571;50.974;13.936;2023-04-26T00:15:06;99972.03;;;8.37;100.00
28310;BME280;15571;50.974;13.936;2023-04-26T00:18:12;99969.41;;;8.38;100.00
28310;BME280;15571;50.974;13.936;2023-04-26T00:21:17;99969.44;;;8.40;100.00
28310;BME280;15571;50.974;13.936;2023-04-26T00:24:21;99973.78;;;8.41;100.00
28310;BME280;15571;50.974;13.936;2023-04-26T00:27:28;99972.91;;;8.40;100.00
28310;BME280;15571;50.974;13.936;2023-04-26T00:30:34;99979.00;;;8.38;100.00
28310;BME280;15571;50.974;13.936;2023-04-26T00:33:37;99983.34;;;8.31;100.00
28310;BME280;15571;50.974;13.936;2023-04-26T00:36:44;99989.41;;;8.35;100.00
28310;BME280;15571;50.974;13.936;2023-04-26T00:39:48;99985.06;;;8.34;100.00
28310;BME280;15571;50.974;13.936;2023-04-26T00:42:56;99986.81;;;8.35;100.00
28310;BME280;15571;50.974;13.936;2023-04-26T00:46:00;99984.19;;;8.35;100.00
28310;BME280;15571;50.974;13.936;2023-04-26T00:49:05;99991.16;;;8.36;100.00
28310;BME280;15571;50.974;13.936;2023-04-26T00:52:08;99989.41;;;8.35;100.00
28310;BME280;15571;50.974;13.936;2023-04-26T00:55:12;99984.22;;;8.36;100.00
28310;BME280;15571;50.974;13.936;2023-04-26T00:58:21;99987.69;;;8.34;100.00
28310;BME280;15571;50.974;13.936;2023-04-26T01:01:28;99988.56;;;8.34;100.00
28310;BME280;15571;50.974;13.936;2023-04-26T01:04:34;99993.78;;;8.34;100.00
28310;BME280;15571;50.974;13.936;2023-04-26T01:07:41;99994.63;;;8.35;100.00
28310;BME280;15571;50.974;13.936;2023-04-26T01:10:45;99999.00;;;8.34;100.00
28310;BME280;15571;50.974;13.936;2023-04-26T01:13:56;100001.59;;;8.30;100.00
28310;BME280;15571;50.974;13.936;2023-04-26T01:17:03;99996.38;;;8.30;100.00
28310;BME280;15571;50.974;13.936;2023-04-26T01:20:12;99999.00;;;8.30;100.00
28310;BME280;15571;50.974;13.936;2023-04-26T01:23:22;99997.25;;;8.29;100.00
28310;BME280;15571;50.974;13.936;2023-04-26T01:26:25;99995.50;;;8.29;100.00
28310;BME280;15571;50.974;13.936;2023-04-26T01:29:30;99998.13;;;8.28;100.00
28310;BME280;15571;50.974;13.936;2023-04-26T01:32:37;100004.19;;;8.26;100.00
28310;BME280;15571;50.974;13.936;2023-04-26T01:35:41;100005.94;;;8.18;100.00
28310;BME280;15571;50.974;13.936;2023-04-26T01:38:55;100005.06;;;8.16;100.00
28310;BME280;15571;50.974;13.936;2023-04-26T01:42:03;100013.75;;;8.15;100.00
28310;BME280;15571;50.974;13.936;2023-04-26T01:45:06;100017.22;;;8.14;100.00
28310;BME280;15571;50.974;13.936;2023-04-26T01:48:32;100022.44;;;8.08;100.00
28310;BME280;15571;50.974;13.936;2023-04-26T01:51:47;100017.22;;;8.08;100.00
28310;BME280;15571;50.974;13.936;2023-04-26T01:54:52;100025.91;;;8.04;100.00
28310;BME280;15571;50.974;13.936;2023-04-26T01:58:01;100024.19;;;8.03;100.00
28310;BME280;15571;50.974;13.936;2023-04-26T02:01:04;100027.66;;;8.02;100.00
28310;BME280;15571;50.974;13.936;2023-04-26T02:04:09;100034.59;;;8.03;100.00
28310;BME280;15571;50.974;13.936;2023-04-26T02:07:14;100030.22;;;8.00;100.00
28310;BME280;15571;50.974;13.936;2023-04-26T02:10:20;100022.41;;;7.95;100.00
28310;BME280;15571;50.974;13.936;2023-04-26T02:13:24;100026.78;;;7.93;100.00
28310;BME280;15571;50.974;13.936;2023-04-26T02:16:32;100025.91;;;7.91;100.00
28310;BME280;15571;50.974;13.936;2023-04-26T02:19:41;100025.91;;;7.91;100.00
28310;BME280;15571;50.974;13.936;2023-04-26T02:22:46;100030.22;;;7.91;100.00
28310;BME280;15571;50.974;13.936;2023-04-26T02:25:50;100029.38;;;7.90;100.00
28310;BME280;15571;50.974;13.936;2023-04-26T02:29:04;100028.50;;;7.87;100.00
28310;BME280;15571;50.974;13.936;2023-04-26T02:32:09;100027.59;;;7.86;100.00
28310;BME280;15571;50.974;13.936;2023-04-26T02:35:13;100026.72;;;7.84;100.00
28310;BME280;15571;50.974;13.936;2023-04-26T02:38:18;100023.25;;;7.84;100.00
28310;BME280;15571;50.974;13.936;2023-04-26T02:41:26;100029.31;;;7.84;100.00
28310;BME280;15571;50.974;13.936;2023-04-26T02:44:35;100022.41;;;7.83;100.00
28310;BME280;15571;50.974;13.936;2023-04-26T02:47:42;100027.63;;;7.83;100.00
28310;BME280;15571;50.974;13.936;2023-04-26T02:50:45;100016.31;;;7.81;100.00
28310;BME280;15571;50.974;13.936;2023-04-26T02:53:54;100020.66;;;7.79;100.00
28310;BME280;15571;50.974;13.936;2023-04-26T02:57:00;100016.28;;;7.78;100.00
28310;BME280;15571;50.974;13.936;2023-04-26T03:00:03;100032.78;;;7.77;100.00
28310;BME280;15571;50.974;13.936;2023-04-26T03:03:10;100029.31;;;7.78;100.00
28310;BME280;15571;50.974;13.936;2023-04-26T03:06:14;100024.97;;;7.75;100.00
28310;BME280;15571;50.974;13.936;2023-04-26T03:09:19;100034.53;;;7.75;100.00
28310;BME280;15571;50.974;13.936;2023-04-26T03:12:30;100032.81;;;7.74;100.00
28310;BME280;15571;50.974;13.936;2023-04-26T03:15:42;100038.00;;;7.72;100.00
28310;BME280;15571;50.974;13.936;2023-04-26T03:18:44;100036.28;;;7.73;100.00
28310;BME280;15571;50.974;13.936;2023-04-26T03:21:46;100038.00;;;7.71;100.00
28310;BME280;15571;50.974;13.936;2023-04-26T03:24:50;100040.56;;;7.69;100.00
28310;BME280;15571;50.974;13.936;2023-04-26T03:27:57;100042.31;;;7.69;100.00
28310;BME280;15571;50.974;13.936;2023-04-26T03:31:00;100041.44;;;7.67;100.00
28310;BME280;15571;50.974;13.936;2023-04-26T03:34:05;100041.47;;;7.63;100.00
28310;BME280;15571;50.974;13.936;2023-04-26T03:37:08;100040.53;;;7.60;100.00
28310;BME280;15571;50.974;13.936;2023-04-26T03:40:17;100050.09;;;7.59;100.00
28310;BME280;15571;50.974;13.936;2023-04-26T03:43:21;100044.03;;;7.59;100.00
28310;BME280;15571;50.974;13.936;2023-04-26T03:46:24;100049.22;;;7.57;100.00
28310;BME280;15571;50.974;13.936;2023-04-26T03:49:26;100054.44;;;7.57;100.00
28310;BME280;15571;50.974;13.936;2023-04-26T03:52:31;100057.03;;;7.56;100.00
28310;BME280;15571;50.974;13.936;2023-04-26T03:55:33;100060.50;;;7.50;100.00
28310;BME280;15571;50.974;13.936;2023-04-26T03:58:37;100063.94;;;7.51;100.00
28310;BME280;15571;50.974;13.936;2023-04-26T04:01:41;100059.56;;;7.39;100.00
28310;BME280;15571;50.974;13.936;2023-04-26T04:04:44;100061.28;;;7.35;100.00
28310;BME280;15571;50.974;13.936;2023-04-26T04:07:57;100063.88;;;7.35;100.00
28310;BME280;15571;50.974;13.936;2023-04-26T04:11:01;100062.16;;;7.36;100.00
28310;BME280;15571;50.974;13.936;2023-04-26T04:14:07;100065.53;;;7.19;100.00
28310;BME280;15571;50.974;13.936;2023-04-26T04:17:10;100065.50;;;7.16;100.00
28310;BME280;15571;50.974;13.936;2023-04-26T04:20:14;100066.44;;;7.20;100.00
28310;BME280;15571;50.974;13.936;2023-04-26T04:23:23;100073.28;;;7.10;100.00
28310;BME280;15571;50.974;13.936;2023-04-26T04:26:27;100076.75;;;7.10;100.00
28310;BME280;15571;50.974;13.936;2023-04-26T04:29:38;100075.81;;;6.97;100.00
28310;BME280;15571;50.974;13.936;2023-04-26T04:32:42;100068.03;;;6.99;100.00
28310;BME280;15571;50.974;13.936;2023-04-26T04:35:50;100075.81;;;6.96;100.00
28310;BME280;15571;50.974;13.936;2023-04-26T04:39:02;100084.47;;;6.96;100.00
28310;BME280;15571;50.974;13.936;2023-04-26T04:42:05;100086.25;;;7.00;100.00
28310;BME280;15571;50.974;13.936;2023-04-26T04:45:18;100091.47;;;7.04;100.00
28310;BME280;15571;50.974;13.936;2023-04-26T04:48:24;100088.84;;;7.02;100.00
28310;BME280;15571;50.974;13.936;2023-04-26T04:51:33;100092.34;;;7.03;100.00
28310;BME280;15571;50.974;13.936;2023-04-26T04:54:35;100094.06;;;7.00;100.00
28310;BME280;15571;50.974;13.936;2023-04-26T04:57:41;100094.06;;;6.99;100.00
28310;BME280;15571;50.974;13.936;2023-04-26T05:00:46;100101.84;;;6.94;100.00
28310;BME280;15571;50.974;13.936;2023-04-26T05:03:56;100104.44;;;6.96;100.00
28310;BME280;15571;50.974;13.936;2023-04-26T05:06:58;100103.56;;;6.98;100.00
28310;BME280;15571;50.974;13.936;2023-04-26T05:10:02;100108.81;;;7.03;100.00
28310;BME280;15571;50.974;13.936;2023-04-26T05:13:05;100115.69;;;6.96;100.00
28310;BME280;15571;50.974;13.936;2023-04-26T05:16:10;100105.31;;;6.99;100.00
28310;BME280;15571;50.974;13.936;2023-04-26T05:19:15;100112.28;;;7.00;100.00
28310;BME280;15571;50.974;13.936;2023-04-26T05:22:23;100110.56;;;7.03;100.00
28310;BME280;15571;50.974;13.936;2023-04-26T05:25:29;100110.56;;;7.06;100.00
28310;BME280;15571;50.974;13.936;2023-04-26T05:28:41;100114.06;;;7.08;100.00
28310;BME280;15571;50.974;13.936;2023-04-26T05:32:01;100121.84;;;7.05;100.00
28310;BME280;15571;50.974;13.936;2023-04-26T05:35:18;100122.72;;;7.04;100.00
28310;BME280;15571;50.974;13.936;2023-04-26T05:38:21;100120.13;;;7.04;100.00
28310;BME280;15571;50.974;13.936;2023-04-26T05:41:24;100124.44;;;7.01;100.00
28310;BME280;15571;50.974;13.936;2023-04-26T05:44:28;100129.59;;;6.95;100.00
28310;BME280;15571;50.974;13.936;2023-04-26T05:47:33;100127.03;;;7.03;100.00
28310;BME280;15571;50.974;13.936;2023-04-26T05:50:39;100139.22;;;7.07;100.00
28310;BME280;15571;50.974;13.936;2023-04-26T05:53:47;100139.19;;;7.03;100.00
28310;BME280;15571;50.974;13.936;2023-04-26T05:56:56;100135.75;;;7.08;100.00
28310;BME280;15571;50.974;13.936;2023-04-26T06:00:02;100134.94;;;7.14;100.00
28310;BME280;15571;50.974;13.936;2023-04-26T06:03:18;100139.31;;;7.23;100.00
28310;BME280;15571;50.974;13.936;2023-04-26T06:06:22;100139.34;;;7.27;100.00
28310;BME280;15571;50.974;13.936;2023-04-26T06:09:29;100130.72;;;7.33;100.00
28310;BME280;15571;50.974;13.936;2023-04-26T06:12:33;100134.19;;;7.35;100.00
28310;BME280;15571;50.974;13.936;2023-04-26T06:15:40;100129.00;;;7.41;100.00
28310;BME280;15571;50.974;13.936;2023-04-26T06:18:46;100131.63;;;7.41;100.00
28310;BME280;15571;50.974;13.936;2023-04-26T06:21:51;100127.31;;;7.50;100.00
28310;BME280;15571;50.974;13.936;2023-04-26T06:24:58;100131.69;;;7.51;100.00
28310;BME280;15571;50.974;13.936;2023-04-26T06:28:10;100140.44;;;7.60;100.00
28310;BME280;15571;50.974;13.936;2023-04-26T06:31:14;100140.44;;;7.63;100.00
28310;BME280;15571;50.974;13.936;2023-04-26T06:34:26;100140.44;;;7.65;100.00
28310;BME280;15571;50.974;13.936;2023-04-26T06:37:46;100142.16;;;7.64;100.00
28310;BME280;15571;50.974;13.936;2023-04-26T06:40:49;100148.25;;;7.60;100.00
28310;BME280;15571;50.974;13.936;2023-04-26T06:43:54;100149.06;;;7.56;100.00
28310;BME280;15571;50.974;13.936;2023-04-26T06:47:11;100152.56;;;7.57;100.00
28310;BME280;15571;50.974;13.936;2023-04-26T06:50:16;100148.13;;;7.43;100.00
28310;BME280;15571;50.974;13.936;2023-04-26T06:53:22;100155.13;;;7.49;100.00
28310;BME280;15571;50.974;13.936;2023-04-26T06:56:27;100155.16;;;7.52;100.00
28310;BME280;15571;50.974;13.936;2023-04-26T06:59:31;100161.25;;;7.54;100.00
28310;BME280;15571;50.974;13.936;2023-04-26T07:02:35;100168.19;;;7.58;100.00
28310;BME280;15571;50.974;13.936;2023-04-26T07:05:48;100158.63;;;7.56;100.00
28310;BME280;15571;50.974;13.936;2023-04-26T07:08:50;100164.69;;;7.50;100.00
28310;BME280;15571;50.974;13.936;2023-04-26T07:11:57;100159.50;;;7.53;100.00
28310;BME280;15571;50.974;13.936;2023-04-26T07:15:04;100157.75;;;7.55;100.00
28310;BME280;15571;50.974;13.936;2023-04-26T07:18:11;100166.44;;;7.57;100.00
28310;BME280;15571;50.974;13.936;2023-04-26T07:21:20;100163.00;;;7.61;100.00
28310;BME280;15571;50.974;13.936;2023-04-26T07:24:22;100166.50;;;7.63;100.00
28310;BME280;15571;50.974;13.936;2023-04-26T07:27:26;100162.19;;;7.75;100.00
28310;BME280;15571;50.974;13.936;2023-04-26T07:30:31;100164.00;;;7.84;100.00
28310;BME280;15571;50.974;13.936;2023-04-26T07:33:35;100170.03;;;7.78;100.00
28310;BME280;15571;50.974;13.936;2023-04-26T07:36:38;100162.25;;;7.86;100.00
28310;BME280;15571;50.974;13.936;2023-04-26T07:39:41;100171.81;;;7.85;100.00
28310;BME280;15571;50.974;13.936;2023-04-26T07:42:46;100166.59;;;7.85;100.00
28310;BME280;15571;50.974;13.936;2023-04-26T07:45:50;100164.03;;;7.94;100.00
28310;BME280;15571;50.974;13.936;2023-04-26T07:48:55;100174.47;;;7.96;100.00
28310;BME280;15571;50.974;13.936;2023-04-26T07:52:01;100175.34;;;7.97;100.00
28310;BME280;15571;50.974;13.936;2023-04-26T07:55:08;100177.06;;;7.99;100.00
28310;BME280;15571;50.974;13.936;2023-04-26T07:58:13;100171.84;;;7.94;100.00
28310;BME280;15571;50.974;13.936;2023-04-26T08:01:15;100167.53;;;7.98;100.00
28310;BME280;15571;50.974;13.936;2023-04-26T08:04:29;100167.56;;;8.06;100.00
28310;BME280;15571;50.974;13.936;2023-04-26T08:07:38;100165.84;;;8.11;100.00
28310;BME280;15571;50.974;13.936;2023-04-26T08:10:43;100171.03;;;8.05;100.00
28310;BME280;15571;50.974;13.936;2023-04-26T08:13:48;100175.38;;;8.06;100.00
28310;BME280;15571;50.974;13.936;2023-04-26T08:16:59;100175.38;;;8.06;99.17
28310;BME280;15571;50.974;13.936;2023-04-26T08:20:04;100168.44;;;8.09;98.79
28310;BME280;15571;50.974;13.936;2023-04-26T08:23:10;100172.78;;;8.10;95.66
28310;BME280;15571;50.974;13.936;2023-04-26T08:26:16;100177.16;;;8.16;96.55
28310;BME280;15571;50.974;13.936;2023-04-26T08:29:18;100180.63;;;8.15;96.40
28310;BME280;15571;50.974;13.936;2023-04-26T08:32:27;100178.88;;;8.14;94.93
28310;BME280;15571;50.974;13.936;2023-04-26T08:35:41;100178.88;;;8.14;91.81
28310;BME280;15571;50.974;13.936;2023-04-26T08:38:50;100180.59;;;8.10;91.64
28310;BME280;15571;50.974;13.936;2023-04-26T08:41:55;100179.78;;;8.19;90.80
28310;BME280;15571;50.974;13.936;2023-04-26T08:45:09;100175.44;;;8.23;91.10
28310;BME280;15571;50.974;13.936;2023-04-26T08:48:14;100182.41;;;8.22;90.70
28310;BME280;15571;50.974;13.936;2023-04-26T08:51:23;100184.13;;;8.23;91.33
28310;BME280;15571;50.974;13.936;2023-04-26T08:54:33;100178.91;;;8.23;90.77
28310;BME280;15571;50.974;13.936;2023-04-26T08:57:35;100180.69;;;8.32;92.88
28310;BME280;15571;50.974;13.936;2023-04-26T09:00:39;100168.56;;;8.42;94.04
28310;BME280;15571;50.974;13.936;2023-04-26T09:03:44;100172.94;;;8.49;92.82
28310;BME280;15571;50.974;13.936;2023-04-26T09:06:48;100168.63;;;8.56;91.85
28310;BME280;15571;50.974;13.936;2023-04-26T09:09:55;100179.91;;;8.61;91.68
28310;BME280;15571;50.974;13.936;2023-04-26T09:13:03;100177.31;;;8.60;88.24
28310;BME280;15571;50.974;13.936;2023-04-26T09:16:06;100164.25;;;8.66;88.21
28310;BME280;15571;50.974;13.936;2023-04-26T09:19:12;100161.66;;;8.72;88.49
28310;BME280;15571;50.974;13.936;2023-04-26T09:22:15;100175.56;;;8.69;85.39
28310;BME280;15571;50.974;13.936;2023-04-26T09:25:37;100168.66;;;8.79;86.74
28310;BME280;15571;50.974;13.936;2023-04-26T09:28:42;100179.06;;;8.82;87.88
28310;BME280;15571;50.974;13.936;2023-04-26T09:31:48;100180.81;;;8.83;84.51
28310;BME280;15571;50.974;13.936;2023-04-26T09:34:55;100181.69;;;8.88;83.71
28310;BME280;15571;50.974;13.936;2023-04-26T09:37:59;100177.34;;;8.84;77.73
28310;BME280;15571;50.974;13.936;2023-04-26T09:41:06;100168.66;;;8.88;78.70
28310;BME280;15571;50.974;13.936;2023-04-26T09:44:20;100182.56;;;8.87;78.92
28310;BME280;15571;50.974;13.936;2023-04-26T09:47:23;100179.09;;;8.90;77.20
28310;BME280;15571;50.974;13.936;2023-04-26T09:50:27;100179.97;;;8.97;79.04
28310;BME280;15571;50.974;13.936;2023-04-26T09:53:37;100177.34;;;8.92;77.66
28310;BME280;15571;50.974;13.936;2023-04-26T09:56:59;100172.13;;;9.00;79.65
28310;BME280;15571;50.974;13.936;2023-04-26T10:00:04;100179.94;;;9.03;79.72
28310;BME280;15571;50.974;13.936;2023-04-26T10:03:14;100184.31;;;9.06;76.30
28310;BME280;15571;50.974;13.936;2023-04-26T10:06:18;100182.56;;;9.01;73.72
28310;BME280;15571;50.974;13.936;2023-04-26T10:09:22;100180.81;;;9.05;74.58
28310;BME280;15571;50.974;13.936;2023-04-26T10:12:30;100183.44;;;8.99;73.01
28310;BME280;15571;50.974;13.936;2023-04-26T10:15:34;100182.56;;;9.06;75.04
28310;BME280;15571;50.974;13.936;2023-04-26T10:18:36;100180.81;;;9.10;76.12
28310;BME280;15571;50.974;13.936;2023-04-26T10:21:39;100179.09;;;9.13;74.90
28310;BME280;15571;50.974;13.936;2023-04-26T10:24:42;100191.28;;;9.05;69.32
28310;BME280;15571;50.974;13.936;2023-04-26T10:27:49;100177.34;;;9.06;69.66
28310;BME280;15571;50.974;13.936;2023-04-26T10:30:55;100185.16;;;9.08;68.79
28310;BME280;15571;50.974;13.936;2023-04-26T10:34:19;100172.13;;;9.15;72.24
28310;BME280;15571;50.974;13.936;2023-04-26T10:37:24;100162.53;;;9.27;73.47
28310;BME280;15571;50.974;13.936;2023-04-26T10:40:26;100160.78;;;9.32;69.70
28310;BME280;15571;50.974;13.936;2023-04-26T10:43:33;100163.38;;;9.41;69.63
28310;BME280;15571;50.974;13.936;2023-04-26T10:46:48;100170.34;;;9.45;67.23
28310;BME280;15571;50.974;13.936;2023-04-26T10:50:03;100170.34;;;9.42;62.81
28310;BME280;15571;50.974;13.936;2023-04-26T10:53:08;100166.88;;;9.43;63.70
28310;BME280;15571;50.974;13.936;2023-04-26T10:59:36;100188.66;;;9.22;59.64
28310;BME280;15571;50.974;13.936;2023-04-26T11:02:46;100185.16;;;9.17;59.83
28310;BME280;15571;50.974;13.936;2023-04-26T11:05:58;100173.84;;;9.13;59.62
28310;BME280;15571;50.974;13.936;2023-04-26T11:09:01;100177.34;;;9.15;59.91
28310;BME280;15571;50.974;13.936;2023-04-26T11:12:05;100174.75;;;9.18;60.40
28310;BME280;15571;50.974;13.936;2023-04-26T11:15:13;100160.81;;;9.21;62.09
28310;BME280;15571;50.974;13.936;2023-04-26T11:18:17;100165.16;;;9.30;63.02
28310;BME280;15571;50.974;13.936;2023-04-26T11:21:21;100158.19;;;9.38;66.10
28310;BME280;15571;50.974;13.936;2023-04-26T11:24:25;100154.69;;;9.48;67.07
28310;BME280;15571;50.974;13.936;2023-04-26T11:27:33;100165.97;;;9.58;67.60
28310;BME280;15571;50.974;13.936;2023-04-26T11:30:43;100158.09;;;9.63;64.23
28310;BME280;15571;50.974;13.936;2023-04-26T11:33:46;100178.16;;;9.61;59.96
28310;BME280;15571;50.974;13.936;2023-04-26T11:36:52;100166.81;;;9.62;59.68
28310;BME280;15571;50.974;13.936;2023-04-26T11:39:57;100165.06;;;9.69;61.51
28310;BME280;15571;50.974;13.936;2023-04-26T11:43:05;100172.94;;;9.67;62.26
28310;BME280;15571;50.974;13.936;2023-04-26T11:46:11;100178.13;;;9.65;59.68
28310;BME280;15571;50.974;13.936;2023-04-26T11:49:26;100179.00;;;9.72;59.75
28310;BME280;15571;50.974;13.936;2023-04-26T11:52:31;100170.28;;;9.73;59.36
28310;BME280;15571;50.974;13.936;2023-04-26T11:55:35;100182.47;;;9.77;58.19
28310;BME280;15571;50.974;13.936;2023-04-26T11:58:39;100183.34;;;9.79;57.13
28310;BME280;15571;50.974;13.936;2023-04-26T12:01:55;100187.69;;;9.84;57.89
28310;BME280;15571;50.974;13.936;2023-04-26T12:05:06;100176.34;;;9.89;56.24
28310;BME280;15571;50.974;13.936;2023-04-26T12:08:10;100183.28;;;9.96;56.69
28310;BME280;15571;50.974;13.936;2023-04-26T12:11:18;100186.75;;;9.99;54.63
28310;BME280;15571;50.974;13.936;2023-04-26T12:14:32;100186.75;;;10.06;55.57
28310;BME280;15571;50.974;13.936;2023-04-26T14:22:19;100194.47;;;10.37;53.41
28310;BME280;15571;50.974;13.936;2023-04-26T14:25:25;100194.44;;;10.40;53.91
28310;BME280;15571;50.974;13.936;2023-04-26T14:28:35;100203.16;;;10.42;54.63
28310;BME280;15571;50.974;13.936;2023-04-26T14:31:38;100201.41;;;10.45;53.94
28310;BME280;15571;50.974;13.936;2023-04-26T14:34:44;100197.94;;;10.46;55.43
28310;BME280;15571;50.974;13.936;2023-04-26T14:37:54;100197.00;;;10.50;54.86
28310;BME280;15571;50.974;13.936;2023-04-26T14:40:59;100199.63;;;10.53;54.74
28310;BME280;15571;50.974;13.936;2023-04-26T14:44:06;100196.13;;;10.51;53.49
28310;BME280;15571;50.974;13.936;2023-04-26T14:47:15;100195.25;;;10.53;53.87
28310;BME280;15571;50.974;13.936;2023-04-26T14:50:22;100200.50;;;10.52;53.59
28310;BME280;15571;50.974;13.936;2023-04-26T14:53:29;100194.41;;;10.50;52.87
28310;BME280;15571;50.974;13.936;2023-04-26T14:56:35;100202.28;;;10.47;51.89
28310;BME280;15571;50.974;13.936;2023-04-26T14:59:39;100196.19;;;10.45;51.24
28310;BME280;15571;50.974;13.936;2023-04-26T15:02:47;100195.28;;;10.49;51.88
28310;BME280;15571;50.974;13.936;2023-04-26T15:05:52;100195.28;;;10.44;52.37
28310;BME280;15571;50.974;13.936;2023-04-26T15:08:58;100197.09;;;10.39;52.17
28310;BME280;15571;50.974;13.936;2023-04-26T15:12:02;100190.09;;;10.39;53.12
28310;BME280;15571;50.974;13.936;2023-04-26T15:15:04;100198.81;;;10.35;51.93
28310;BME280;15571;50.974;13.936;2023-04-26T15:18:08;100206.69;;;10.40;51.65
28310;BME280;15571;50.974;13.936;2023-04-26T15:21:14;100202.28;;;10.36;51.88
28310;BME280;15571;50.974;13.936;2023-04-26T15:24:22;100203.19;;;10.33;51.53
28310;BME280;15571;50.974;13.936;2023-04-26T15:27:29;100193.59;;;10.31;51.31
28310;BME280;15571;50.974;13.936;2023-04-26T15:30:33;100194.47;;;10.34;52.06
28310;BME280;15571;50.974;13.936;2023-04-26T15:33:36;100200.56;;;10.33;51.87
28310;BME280;15571;50.974;13.936;2023-04-26T15:36:42;100206.69;;;10.38;52.81
28310;BME280;15571;50.974;13.936;2023-04-26T15:39:48;100201.41;;;10.37;53.14
28310;BME280;15571;50.974;13.936;2023-04-26T15:42:50;100203.19;;;10.38;53.23
28310;BME280;15571;50.974;13.936;2023-04-26T15:46:01;100205.81;;;10.41;53.79
28310;BME280;15571;50.974;13.936;2023-04-26T15:49:05;100207.56;;;10.39;54.53
28310;BME280;15571;50.974;13.936;2023-04-26T15:52:08;100216.25;;;10.35;54.87
28310;BME280;15571;50.974;13.936;2023-04-26T15:55:13;100214.53;;;10.40;54.90
28310;BME280;15571;50.974;13.936;2023-04-26T15:58:18;100217.13;;;10.32;53.86
28310;BME280;15571;50.974;13.936;2023-04-26T16:01:24;100207.53;;;10.36;54.44
28310;BME280;15571;50.974;13.936;2023-04-26T16:04:28;100210.19;;;10.37;54.64
28310;BME280;15571;50.974;13.936;2023-04-26T16:07:36;100210.19;;;10.37;55.16
28310;BME280;15571;50.974;13.936;2023-04-26T16:10:42;100204.06;;;10.35;54.92
28310;BME280;15571;50.974;13.936;2023-04-26T16:13:47;100211.91;;;10.32;54.61
28310;BME280;15571;50.974;13.936;2023-04-26T16:16:58;100211.00;;;10.35;54.74
28310;BME280;15571;50.974;13.936;2023-04-26T16:20:02;100211.03;;;10.30;54.51
28310;BME280;15571;50.974;13.936;2023-04-26T16:23:07;100213.69;;;10.27;54.18
28310;BME280;15571;50.974;13.936;2023-04-26T16:26:16;100210.19;;;10.25;54.91
28310;BME280;15571;50.974;13.936;2023-04-26T16:29:19;100208.41;;;10.30;55.29
28310;BME280;15571;50.974;13.936;2023-04-26T16:32:25;100211.91;;;10.29;55.99
28310;BME280;15571;50.974;13.936;2023-04-26T16:35:29;100213.69;;;10.27;55.60
28310;BME280;15571;50.974;13.936;2023-04-26T16:38:34;100213.69;;;10.27;55.76
28310;BME280;15571;50.974;13.936;2023-04-26T16:41:41;100213.69;;;10.27;56.04
28310;BME280;15571;50.974;13.936;2023-04-26T16:44:44;100213.69;;;10.27;55.96
28310;BME280;15571;50.974;13.936;2023-04-26T16:47:49;100212.81;;;10.25;55.81
28310;BME280;15571;50.974;13.936;2023-04-26T16:50:51;100216.31;;;10.24;55.83
28310;BME280;15571;50.974;13.936;2023-04-26T16:53:55;100220.66;;;10.22;56.36
28310;BME280;15571;50.974;13.936;2023-04-26T16:57:00;100211.09;;;10.19;56.55
28310;BME280;15571;50.974;13.936;2023-04-26T17:00:06;100218.97;;;10.10;55.95
28310;BME280;15571;50.974;13.936;2023-04-26T17:03:13;100221.56;;;10.11;56.96
28310;BME280;15571;50.974;13.936;2023-04-26T17:06:15;100220.72;;;10.12;57.32
28310;BME280;15571;50.974;13.936;2023-04-26T17:09:21;100231.16;;;10.16;57.29
28310;BME280;15571;50.974;13.936;2023-04-26T17:12:29;100232.91;;;10.13;56.02
28310;BME280;15571;50.974;13.936;2023-04-26T17:15:37;100228.56;;;10.12;55.56
28310;BME280;15571;50.974;13.936;2023-04-26T17:18:45;100230.31;;;10.12;55.31
28310;BME280;15571;50.974;13.936;2023-04-26T17:21:48;100236.41;;;10.12;54.71
28310;BME280;15571;50.974;13.936;2023-04-26T17:24:55;100232.03;;;10.11;54.51
28310;BME280;15571;50.974;13.936;2023-04-26T17:28:02;100241.63;;;10.09;54.95
28310;BME280;15571;50.974;13.936;2023-04-26T17:31:09;100237.31;;;10.05;54.49
28310;BME280;15571;50.974;13.936;2023-04-26T17:34:15;100248.66;;;9.98;54.26
28310;BME280;15571;50.974;13.936;2023-04-26T17:37:19;100243.44;;;9.95;54.73
28310;BME280;15571;50.974;13.936;2023-04-26T17:40:23;100245.16;;;9.97;55.03
28310;BME280;15571;50.974;13.936;2023-04-26T17:43:27;100243.44;;;9.92;55.17
28310;BME280;15571;50.974;13.936;2023-04-26T17:46:38;100253.03;;;9.91;55.86
28310;BME280;15571;50.974;13.936;2023-04-26T17:49:40;100246.94;;;9.88;55.97
28310;BME280;15571;50.974;13.936;2023-04-26T17:52:45;100244.31;;;9.91;56.39
28310;BME280;15571;50.974;13.936;2023-04-26T17:55:49;100250.41;;;9.88;56.87
28310;BME280;15571;50.974;13.936;2023-04-26T17:59:05;100254.78;;;9.89;56.97
28310;BME280;15571;50.974;13.936;2023-04-26T18:02:13;100247.81;;;9.87;57.28
28310;BME280;15571;50.974;13.936;2023-04-26T18:05:18;100253.91;;;9.86;57.86
28310;BME280;15571;50.974;13.936;2023-04-26T18:08:23;100254.78;;;9.86;58.64
28310;BME280;15571;50.974;13.936;2023-04-26T18:11:26;100260.00;;;9.85;59.28
28310;BME280;15571;50.974;13.936;2023-04-26T18:14:32;100253.91;;;9.86;59.65